sensor_id;sensor_type;location;lat;lon;timestamp;pressure;altitude;pressure_sealevel;temperature;humidity
8627;BME280;4351;51.422;6.794;2022-08-18T05:53:04;101362.63;;;19.67;69.49
8627;BME280;4351;51.422;6.794;2022-08-18T05:55:44;101379.03;;;19.67;66.37
8627;BME280;4351;51.422;6.794;2022-08-18T05:58:34;101405.38;;;19.68;63.50
8627;BME280;4351;51.422;6.794;2022-08-18T06:01:06;101433.19;;;19.63;63.02
8627;BME280;4351;51.422;6.794;2022-08-18T06:03:43;101450.44;;;19.64;61.42
8627;BME280;4351;51.422;6.794;2022-08-18T06:06:17;101472.53;;;19.72;59.16
8627;BME280;4351;51.422;6.794;2022-08-18T06:08:52;101494.16;;;19.75;57.16
8627;BME280;4351;51.422;6.794;2022-08-18T06:11:23;101519.72;;;19.64;54.96
8627;BME280;4351;51.422;6.794;2022-08-18T06:13:52;101565.28;;;19.66;51.82
8627;BME280;4351;51.422;6.794;2022-08-18T06:16:38;101623.91;;;19.51;49.20
8627;BME280;4351;51.422;6.794;2022-08-18T06:19:23;101696.38;;;19.57;46.80
8627;BME280;4351;51.422;6.794;2022-08-18T06:22:02;101784.22;;;19.66;45.07
8627;BME280;4351;51.422;6.794;2022-08-18T06:24:40;101855.22;;;19.67;44.15
8627;BME280;4351;51.422;6.794;2022-08-18T06:27:17;101921.03;;;19.66;43.59
8627;BME280;4351;51.422;6.794;2022-08-18T06:29:57;101993.69;;;19.70;42.97
8627;BME280;4351;51.422;6.794;2022-08-18T06:32:45;102053.91;;;19.70;42.60
8627;BME280;4351;51.422;6.794;2022-08-18T06:35:17;102116.88;;;19.81;42.21
8627;BME280;4351;51.422;6.794;2022-08-18T06:37:53;102180.84;;;19.80;41.96
8627;BME280;4351;51.422;6.794;2022-08-18T06:40:47;102263.19;;;19.77;41.79
8627;BME280;4351;51.422;6.794;2022-08-18T06:43:16;102325.88;;;19.69;41.69
8627;BME280;4351;51.422;6.794;2022-08-18T06:45:46;102380.41;;;19.72;41.62
8627;BME280;4351;51.422;6.794;2022-08-18T06:48:23;102436.88;;;19.73;41.56
8627;BME280;4351;51.422;6.794;2022-08-18T06:50:59;102489.47;;;19.78;41.53
8627;BME280;4351;51.422;6.794;2022-08-18T06:53:51;102540.47;;;19.79;41.52
8627;BME280;4351;51.422;6.794;2022-08-18T06:56:25;102572.69;;;19.88;41.50
8627;BME280;4351;51.422;6.794;2022-08-18T06:58:54;102568.97;;;19.90;41.50
8627;BME280;4351;51.422;6.794;2022-08-18T07:01:40;102574.53;;;19.88;41.51
8627;BME280;4351;51.422;6.794;2022-08-18T07:04:08;102593.50;;;19.91;41.50
8627;BME280;4351;51.422;6.794;2022-08-18T07:06:36;102624.81;;;19.87;41.50
8627;BME280;4351;51.422;6.794;2022-08-18T07:09:20;102657.91;;;19.97;41.49
8627;BME280;4351;51.422;6.794;2022-08-18T07:12:05;102665.25;;;19.96;41.49
8627;BME280;4351;51.422;6.794;2022-08-18T07:14:42;102669.63;;;19.99;41.49
8627;BME280;4351;51.422;6.794;2022-08-18T07:17:12;102657.69;;;20.00;41.47
8627;BME280;4351;51.422;6.794;2022-08-18T07:19:41;102658.22;;;20.05;41.49
8627;BME280;4351;51.422;6.794;2022-08-18T07:22:11;102639.75;;;20.09;41.49
8627;BME280;4351;51.422;6.794;2022-08-18T07:24:44;102591.09;;;20.13;41.50
8627;BME280;4351;51.422;6.794;2022-08-18T07:27:16;102511.50;;;20.27;41.56
8627;BME280;4351;51.422;6.794;2022-08-18T07:29:59;102362.00;;;20.12;41.65
8627;BME280;4351;51.422;6.794;2022-08-18T07:37:00;102053.94;;;20.27;41.86
8627;BME280;4351;51.422;6.794;2022-08-18T07:39:36;101947.97;;;20.28;42.07
8627;BME280;4351;51.422;6.794;2022-08-18T07:42:18;101853.47;;;20.33;42.31
8627;BME280;4351;51.422;6.794;2022-08-18T07:45:17;101755.97;;;20.31;42.71
8627;BME280;4351;51.422;6.794;2022-08-18T07:47:55;101691.53;;;20.37;43.26
8627;BME280;4351;51.422;6.794;2022-08-18T07:50:52;101613.09;;;20.36;44.04
8627;BME280;4351;51.422;6.794;2022-08-18T07:53:36;101531.34;;;20.41;45.07
8627;BME280;4351;51.422;6.794;2022-08-18T07:56:33;101461.00;;;20.41;46.87
8627;BME280;4351;51.422;6.794;2022-08-18T07:59:11;101378.97;;;20.40;49.50
8627;BME280;4351;51.422;6.794;2022-08-18T08:01:48;101316.50;;;20.43;52.32
8627;BME280;4351;51.422;6.794;2022-08-18T08:04:27;101269.78;;;20.45;55.47
8627;BME280;4351;51.422;6.794;2022-08-18T08:07:01;101232.03;;;20.49;58.83
8627;BME280;4351;51.422;6.794;2022-08-18T08:10:00;101188.03;;;20.50;63.85
8627;BME280;4351;51.422;6.794;2022-08-18T08:12:35;101172.84;;;20.56;69.08
8627;BME280;4351;51.422;6.794;2022-08-18T08:15:20;101131.63;;;20.58;77.39
8627;BME280;4351;51.422;6.794;2022-08-18T08:18:03;101101.78;;;20.54;87.09
8627;BME280;4351;51.422;6.794;2022-08-18T08:20:42;101066.56;;;20.60;96.24
8627;BME280;4351;51.422;6.794;2022-08-18T08:23:25;101035.25;;;20.62;100.00
8627;BME280;4351;51.422;6.794;2022-08-18T08:26:26;101012.72;;;20.68;100.00
8627;BME280;4351;51.422;6.794;2022-08-18T08:29:11;100998.50;;;20.83;100.00
8627;BME280;4351;51.422;6.794;2022-08-18T08:31:49;100989.06;;;20.67;100.00
8627;BME280;4351;51.422;6.794;2022-08-18T08:34:21;100980.53;;;20.89;100.00
8627;BME280;4351;51.422;6.794;2022-08-18T08:36:57;100965.50;;;20.93;100.00
8627;BME280;4351;51.422;6.794;2022-08-18T08:39:34;100946.75;;;20.98;100.00
8627;BME280;4351;51.422;6.794;2022-08-18T08:42:07;100941.16;;;20.90;100.00
8627;BME280;4351;51.422;6.794;2022-08-18T08:44:59;100933.56;;;21.02;100.00
8627;BME280;4351;51.422;6.794;2022-08-18T08:47:35;100913.59;;;21.10;100.00
8627;BME280;4351;51.422;6.794;2022-08-18T08:50:10;100914.28;;;20.94;100.00
8627;BME280;4351;51.422;6.794;2022-08-18T08:52:43;100915.41;;;21.01;100.00
8627;BME280;4351;51.422;6.794;2022-08-18T08:55:16;100907.53;;;21.24;100.00
8627;BME280;4351;51.422;6.794;2022-08-18T08:57:54;100897.50;;;21.15;100.00
8627;BME280;4351;51.422;6.794;2022-08-18T09:00:24;100896.75;;;21.05;100.00
8627;BME280;4351;51.422;6.794;2022-08-18T09:03:03;100907.09;;;21.11;100.00
8627;BME280;4351;51.422;6.794;2022-08-18T09:05:38;100896.69;;;21.15;100.00
8627;BME280;4351;51.422;6.794;2022-08-18T09:08:37;100891.41;;;21.21;100.00
8627;BME280;4351;51.422;6.794;2022-08-18T09:11:24;100889.69;;;21.20;100.00
8627;BME280;4351;51.422;6.794;2022-08-18T09:14:28;100899.31;;;21.24;100.00
8627;BME280;4351;51.422;6.794;2022-08-18T09:17:14;100898.09;;;21.45;100.00
8627;BME280;4351;51.422;6.794;2022-08-18T09:20:19;100893.34;;;21.56;100.00
8627;BME280;4351;51.422;6.794;2022-08-18T09:22:52;100883.47;;;21.36;100.00
8627;BME280;4351;51.422;6.794;2022-08-18T09:25:32;100880.22;;;21.41;100.00
8627;BME280;4351;51.422;6.794;2022-08-18T09:28:12;100882.63;;;21.44;100.00
8627;BME280;4351;51.422;6.794;2022-08-18T09:30:45;100883.50;;;21.45;100.00
8627;BME280;4351;51.422;6.794;2022-08-18T09:33:32;100886.47;;;21.52;100.00
8627;BME280;4351;51.422;6.794;2022-08-18T09:36:23;100881.81;;;21.52;100.00
8627;BME280;4351;51.422;6.794;2022-08-18T09:38:58;100889.34;;;21.50;100.00
8627;BME280;4351;51.422;6.794;2022-08-18T09:42:09;100901.09;;;21.61;100.00
8627;BME280;4351;51.422;6.794;2022-08-18T09:48:25;100910.34;;;21.86;100.00
8627;BME280;4351;51.422;6.794;2022-08-18T09:51:31;100912.25;;;21.94;100.00
8627;BME280;4351;51.422;6.794;2022-08-18T09:54:12;100927.41;;;21.98;100.00
8627;BME280;4351;51.422;6.794;2022-08-18T09:57:15;100943.03;;;22.06;100.00
8627;BME280;4351;51.422;6.794;2022-08-18T09:59:58;100940.59;;;22.03;100.00
8627;BME280;4351;51.422;6.794;2022-08-18T10:06:05;100957.47;;;22.08;100.00
8627;BME280;4351;51.422;6.794;2022-08-18T10:09:15;100965.06;;;22.23;100.00
8627;BME280;4351;51.422;6.794;2022-08-18T10:12:20;100961.34;;;21.97;100.00
8627;BME280;4351;51.422;6.794;2022-08-18T10:15:17;100976.44;;;21.93;100.00
8627;BME280;4351;51.422;6.794;2022-08-18T10:18:14;100976.41;;;22.20;100.00
8627;BME280;4351;51.422;6.794;2022-08-18T10:20:56;100984.94;;;22.08;100.00
8627;BME280;4351;51.422;6.794;2022-08-18T10:23:57;100991.94;;;22.02;100.00
8627;BME280;4351;51.422;6.794;2022-08-18T10:43:54;101018.44;;;22.55;100.00
8627;BME280;4351;51.422;6.794;2022-08-18T10:47:34;101022.69;;;22.41;100.00
8627;BME280;4351;51.422;6.794;2022-08-18T11:21:51;101043.34;;;22.54;100.00
8627;BME280;4351;51.422;6.794;2022-08-18T11:24:56;101034.13;;;22.28;100.00
8627;BME280;4351;51.422;6.794;2022-08-18T11:28:58;101041.78;;;22.16;100.00
8627;BME280;4351;51.422;6.794;2022-08-18T11:31:50;101050.53;;;22.11;100.00
8627;BME280;4351;51.422;6.794;2022-08-18T11:54:20;101022.34;;;22.79;100.00
8627;BME280;4351;51.422;6.794;2022-08-18T11:56:50;101025.09;;;22.79;100.00
8627;BME280;4351;51.422;6.794;2022-08-18T11:59:58;101022.69;;;22.84;100.00
8627;BME280;4351;51.422;6.794;2022-08-18T12:03:02;101022.56;;;23.11;100.00
8627;BME280;4351;51.422;6.794;2022-08-18T12:05:43;101017.88;;;22.95;100.00
8627;BME280;4351;51.422;6.794;2022-08-18T12:08:32;101022.19;;;22.97;100.00
8627;BME280;4351;51.422;6.794;2022-08-18T12:11:25;101024.59;;;23.01;100.00
8627;BME280;4351;51.422;6.794;2022-08-18T12:13:59;101006.56;;;23.15;100.00
8627;BME280;4351;51.422;6.794;2022-08-18T12:16:48;100995.91;;;23.12;100.00
8627;BME280;4351;51.422;6.794;2022-08-18T12:19:22;100991.44;;;23.02;100.00
8627;BME280;4351;51.422;6.794;2022-08-18T12:21:56;100986.63;;;23.29;100.00
8627;BME280;4351;51.422;6.794;2022-08-18T12:24:27;100989.19;;;23.39;100.00
8627;BME280;4351;51.422;6.794;2022-08-18T12:27:02;100985.44;;;23.57;100.00
8627;BME280;4351;51.422;6.794;2022-08-18T12:33:23;100983.19;;;23.77;100.00
8627;BME280;4351;51.422;6.794;2022-08-18T12:36:13;100988.69;;;23.69;100.00
8627;BME280;4351;51.422;6.794;2022-08-18T12:38:43;100988.53;;;23.71;100.00
8627;BME280;4351;51.422;6.794;2022-08-18T12:41:22;100993.50;;;23.59;100.00
8627;BME280;4351;51.422;6.794;2022-08-18T12:43:50;100992.66;;;23.33;100.00
8627;BME280;4351;51.422;6.794;2022-08-18T12:46:24;100991.94;;;23.39;100.00
8627;BME280;4351;51.422;6.794;2022-08-18T12:48:53;101007.25;;;23.42;100.00
8627;BME280;4351;51.422;6.794;2022-08-18T12:51:23;101014.34;;;23.53;100.00
8627;BME280;4351;51.422;6.794;2022-08-18T12:53:59;101016.38;;;23.84;100.00
8627;BME280;4351;51.422;6.794;2022-08-18T12:56:30;101022.72;;;23.85;100.00
8627;BME280;4351;51.422;6.794;2022-08-18T12:59:03;101016.41;;;23.76;100.00
8627;BME280;4351;51.422;6.794;2022-08-18T13:01:32;101008.13;;;23.76;100.00
8627;BME280;4351;51.422;6.794;2022-08-18T13:04:02;101009.13;;;24.00;100.00
8627;BME280;4351;51.422;6.794;2022-08-18T13:06:44;100998.50;;;23.80;100.00
8627;BME280;4351;51.422;6.794;2022-08-18T13:09:27;100994.16;;;23.86;100.00
8627;BME280;4351;51.422;6.794;2022-08-18T13:12:16;100984.19;;;23.93;100.00
8627;BME280;4351;51.422;6.794;2022-08-18T13:14:46;100985.38;;;23.91;100.00
8627;BME280;4351;51.422;6.794;2022-08-18T13:17:17;100972.63;;;23.98;100.00
8627;BME280;4351;51.422;6.794;2022-08-18T13:20:01;100958.88;;;24.38;100.00
8627;BME280;4351;51.422;6.794;2022-08-18T13:22:35;100950.53;;;24.55;100.00
8627;BME280;4351;51.422;6.794;2022-08-18T13:25:04;100957.06;;;24.54;100.00
8627;BME280;4351;51.422;6.794;2022-08-18T13:27:34;100944.44;;;24.60;100.00
8627;BME280;4351;51.422;6.794;2022-08-18T13:30:07;100953.44;;;24.85;100.00
8627;BME280;4351;51.422;6.794;2022-08-18T13:40:18;100934.66;;;24.25;100.00
8627;BME280;4351;51.422;6.794;2022-08-18T13:42:48;100938.28;;;24.26;100.00
8627;BME280;4351;51.422;6.794;2022-08-18T13:45:19;100934.06;;;24.38;100.00
8627;BME280;4351;51.422;6.794;2022-08-18T13:47:51;100928.56;;;24.38;100.00
8627;BME280;4351;51.422;6.794;2022-08-18T13:50:24;100935.16;;;24.20;100.00
8627;BME280;4351;51.422;6.794;2022-08-18T13:52:56;100933.66;;;24.09;100.00
8627;BME280;4351;51.422;6.794;2022-08-18T13:55:28;100928.28;;;24.16;100.00
8627;BME280;4351;51.422;6.794;2022-08-18T13:57:56;100919.84;;;24.26;100.00
8627;BME280;4351;51.422;6.794;2022-08-18T14:00:27;100910.25;;;24.45;100.00
8627;BME280;4351;51.422;6.794;2022-08-18T14:02:57;100906.97;;;24.74;100.00
8627;BME280;4351;51.422;6.794;2022-08-18T14:05:29;100891.38;;;24.57;100.00
8627;BME280;4351;51.422;6.794;2022-08-18T14:08:17;100894.53;;;24.78;100.00
8627;BME280;4351;51.422;6.794;2022-08-18T14:10:50;100885.56;;;24.76;100.00
8627;BME280;4351;51.422;6.794;2022-08-18T14:13:20;100888.25;;;24.84;100.00
8627;BME280;4351;51.422;6.794;2022-08-18T14:15:51;100893.91;;;24.91;100.00
8627;BME280;4351;51.422;6.794;2022-08-18T14:18:22;100889.09;;;25.32;100.00
8627;BME280;4351;51.422;6.794;2022-08-18T14:20:57;100884.03;;;25.35;100.00
8627;BME280;4351;51.422;6.794;2022-08-18T14:23:49;100888.69;;;25.20;100.00
8627;BME280;4351;51.422;6.794;2022-08-18T14:26:41;100896.81;;;24.98;100.00
8627;BME280;4351;51.422;6.794;2022-08-18T14:29:16;100886.09;;;25.03;100.00
8627;BME280;4351;51.422;6.794;2022-08-18T14:32:05;100899.75;;;25.35;100.00
8627;BME280;4351;51.422;6.794;2022-08-18T14:34:34;100905.25;;;25.35;100.00
8627;BME280;4351;51.422;6.794;2022-08-18T14:37:02;100903.94;;;25.31;100.00
8627;BME280;4351;51.422;6.794;2022-08-18T14:39:35;100897.66;;;25.37;100.00
8627;BME280;4351;51.422;6.794;2022-08-18T14:42:05;100899.53;;;25.21;100.00
8627;BME280;4351;51.422;6.794;2022-08-18T14:44:37;100893.53;;;25.18;100.00
8627;BME280;4351;51.422;6.794;2022-08-18T14:47:07;100883.56;;;25.32;100.00
8627;BME280;4351;51.422;6.794;2022-08-18T14:49:36;100879.84;;;25.40;100.00
8627;BME280;4351;51.422;6.794;2022-08-18T14:52:13;100890.44;;;25.51;100.00
8627;BME280;4351;51.422;6.794;2022-08-18T14:54:42;100891.94;;;25.38;100.00
8627;BME280;4351;51.422;6.794;2022-08-18T14:57:18;100899.88;;;25.72;100.00
8627;BME280;4351;51.422;6.794;2022-08-18T14:59:48;100892.03;;;25.45;100.00
8627;BME280;4351;51.422;6.794;2022-08-18T15:02:17;100890.13;;;25.46;100.00
8627;BME280;4351;51.422;6.794;2022-08-18T15:04:46;100882.06;;;25.44;100.00
8627;BME280;4351;51.422;6.794;2022-08-18T15:07:23;100885.16;;;25.26;100.00
8627;BME280;4351;51.422;6.794;2022-08-18T15:09:51;100893.63;;;25.24;100.00
8627;BME280;4351;51.422;6.794;2022-08-18T15:12:41;100889.56;;;25.35;100.00
8627;BME280;4351;51.422;6.794;2022-08-18T15:15:11;100886.53;;;25.60;100.00
8627;BME280;4351;51.422;6.794;2022-08-18T15:17:44;100889.28;;;25.60;100.00
8627;BME280;4351;51.422;6.794;2022-08-18T15:20:19;100883.09;;;25.58;100.00
8627;BME280;4351;51.422;6.794;2022-08-18T15:22:57;100879.41;;;25.51;100.00
8627;BME280;4351;51.422;6.794;2022-08-18T15:25:50;100876.13;;;25.47;100.00
8627;BME280;4351;51.422;6.794;2022-08-18T15:28:21;100869.69;;;25.55;100.00
8627;BME280;4351;51.422;6.794;2022-08-18T15:30:51;100879.75;;;25.63;100.00
8627;BME280;4351;51.422;6.794;2022-08-18T15:33:39;100876.44;;;25.68;100.00
8627;BME280;4351;51.422;6.794;2022-08-18T15:36:08;100881.09;;;25.52;100.00
8627;BME280;4351;51.422;6.794;2022-08-18T15:38:42;100878.91;;;25.63;100.00
8627;BME280;4351;51.422;6.794;2022-08-18T15:41:26;100880.25;;;25.67;100.00
8627;BME280;4351;51.422;6.794;2022-08-18T15:43:58;100877.00;;;25.63;100.00
8627;BME280;4351;51.422;6.794;2022-08-18T15:46:32;100873.38;;;25.63;100.00
8627;BME280;4351;51.422;6.794;2022-08-18T15:49:01;100866.94;;;25.55;100.00
8627;BME280;4351;51.422;6.794;2022-08-18T15:51:31;100869.81;;;25.77;100.00
8627;BME280;4351;51.422;6.794;2022-08-18T15:54:08;100874.44;;;25.62;100.00
8627;BME280;4351;51.422;6.794;2022-08-18T15:56:37;100880.53;;;25.57;100.00
8627;BME280;4351;51.422;6.794;2022-08-18T15:59:10;100881.41;;;25.57;100.00
8627;BME280;4351;51.422;6.794;2022-08-18T16:01:38;100889.22;;;25.69;100.00
8627;BME280;4351;51.422;6.794;2022-08-18T16:04:10;100896.63;;;25.68;100.00
8627;BME280;4351;51.422;6.794;2022-08-18T16:06:41;100893.34;;;25.73;100.00
8627;BME280;4351;51.422;6.794;2022-08-18T16:09:14;100884.19;;;25.73;100.00
8627;BME280;4351;51.422;6.794;2022-08-18T16:11:42;100882.94;;;25.75;100.00
8627;BME280;4351;51.422;6.794;2022-08-18T16:14:12;100882.72;;;25.62;100.00
8627;BME280;4351;51.422;6.794;2022-08-18T16:16:41;100877.78;;;25.72;100.00
8627;BME280;4351;51.422;6.794;2022-08-18T16:19:09;100882.06;;;25.59;100.00
8627;BME280;4351;51.422;6.794;2022-08-18T16:21:37;100881.75;;;25.54;100.00
8627;BME280;4351;51.422;6.794;2022-08-18T16:24:06;100877.88;;;25.79;100.00
8627;BME280;4351;51.422;6.794;2022-08-18T16:26:35;100883.03;;;25.67;100.00
8627;BME280;4351;51.422;6.794;2022-08-18T16:29:03;100871.97;;;25.67;100.00
8627;BME280;4351;51.422;6.794;2022-08-18T16:31:33;100880.63;;;25.64;100.00
8627;BME280;4351;51.422;6.794;2022-08-18T16:34:01;100878.75;;;25.79;100.00
8627;BME280;4351;51.422;6.794;2022-08-18T16:36:29;100878.75;;;26.32;100.00
8627;BME280;4351;51.422;6.794;2022-08-18T16:38:57;100869.28;;;26.04;100.00
8627;BME280;4351;51.422;6.794;2022-08-18T16:41:26;100862.25;;;26.01;100.00
8627;BME280;4351;51.422;6.794;2022-08-18T16:43:54;100857.59;;;25.87;100.00
8627;BME280;4351;51.422;6.794;2022-08-18T16:46:25;100852.06;;;25.87;100.00
8627;BME280;4351;51.422;6.794;2022-08-18T16:48:56;100856.75;;;25.86;100.00
8627;BME280;4351;51.422;6.794;2022-08-18T16:51:26;100859.31;;;25.88;100.00
8627;BME280;4351;51.422;6.794;2022-08-18T16:53:55;100851.84;;;26.03;100.00
8627;BME280;4351;51.422;6.794;2022-08-18T16:56:26;100851.38;;;25.69;100.00
8627;BME280;4351;51.422;6.794;2022-08-18T16:58:55;100854.09;;;25.78;100.00
8627;BME280;4351;51.422;6.794;2022-08-18T17:01:41;100838.13;;;25.65;100.00
8627;BME280;4351;51.422;6.794;2022-08-18T17:04:30;100846.66;;;25.78;100.00
8627;BME280;4351;51.422;6.794;2022-08-18T17:07:00;100850.03;;;25.95;100.00
8627;BME280;4351;51.422;6.794;2022-08-18T17:09:29;100834.06;;;25.76;100.00
8627;BME280;4351;51.422;6.794;2022-08-18T17:12:02;100837.97;;;25.81;100.00
8627;BME280;4351;51.422;6.794;2022-08-18T17:14:31;100827.88;;;25.58;100.00
8627;BME280;4351;51.422;6.794;2022-08-18T17:16:59;100825.78;;;25.60;100.00
8627;BME280;4351;51.422;6.794;2022-08-18T17:19:31;100835.00;;;25.68;100.00
8627;BME280;4351;51.422;6.794;2022-08-18T17:22:00;100835.13;;;25.59;100.00
8627;BME280;4351;51.422;6.794;2022-08-18T17:24:29;100831.59;;;25.51;100.00
8627;BME280;4351;51.422;6.794;2022-08-18T17:27:08;100830.06;;;25.48;100.00
8627;BME280;4351;51.422;6.794;2022-08-18T17:30:00;100834.28;;;25.74;100.00
8627;BME280;4351;51.422;6.794;2022-08-18T17:32:37;100832.25;;;25.68;100.00
8627;BME280;4351;51.422;6.794;2022-08-18T17:35:11;100829.19;;;25.63;100.00
8627;BME280;4351;51.422;6.794;2022-08-18T17:37:44;100841.97;;;25.64;100.00
8627;BME280;4351;51.422;6.794;2022-08-18T17:40:25;100836.25;;;25.50;100.00
8627;BME280;4351;51.422;6.794;2022-08-18T17:42:55;100835.22;;;25.51;100.00
8627;BME280;4351;51.422;6.794;2022-08-18T17:45:27;100828.38;;;25.62;100.00
8627;BME280;4351;51.422;6.794;2022-08-18T17:48:07;100834.72;;;25.63;100.00
8627;BME280;4351;51.422;6.794;2022-08-18T17:50:43;100839.41;;;25.92;100.00
8627;BME280;4351;51.422;6.794;2022-08-18T17:53:30;100844.31;;;26.12;100.00
8627;BME280;4351;51.422;6.794;2022-08-18T17:56:05;100845.13;;;25.76;100.00
8627;BME280;4351;51.422;6.794;2022-08-18T17:58:37;100843.41;;;25.75;100.00
8627;BME280;4351;51.422;6.794;2022-08-18T18:01:09;100840.75;;;25.81;100.00
8627;BME280;4351;51.422;6.794;2022-08-18T18:03:38;100846.56;;;25.71;100.00
8627;BME280;4351;51.422;6.794;2022-08-18T18:06:12;100847.31;;;25.50;100.00
8627;BME280;4351;51.422;6.794;2022-08-18T18:08:50;100850.63;;;25.30;100.00
8627;BME280;4351;51.422;6.794;2022-08-18T18:11:25;100851.19;;;25.25;100.00
8627;BME280;4351;51.422;6.794;2022-08-18T18:13:54;100848.53;;;25.47;100.00
8627;BME280;4351;51.422;6.794;2022-08-18T18:16:28;100844.16;;;25.38;100.00
8627;BME280;4351;51.422;6.794;2022-08-18T18:19:02;100840.44;;;25.46;100.00
8627;BME280;4351;51.422;6.794;2022-08-18T18:21:34;100848.81;;;25.37;100.00
8627;BME280;4351;51.422;6.794;2022-08-18T18:24:29;100848.91;;;25.14;100.00
8627;BME280;4351;51.422;6.794;2022-08-18T18:26:58;100845.06;;;25.00;100.00
8627;BME280;4351;51.422;6.794;2022-08-18T18:29:28;100842.84;;;24.95;100.00
8627;BME280;4351;51.422;6.794;2022-08-18T18:32:08;100843.78;;;25.26;100.00
8627;BME280;4351;51.422;6.794;2022-08-18T18:35:11;100845.09;;;25.30;100.00
8627;BME280;4351;51.422;6.794;2022-08-18T18:37:51;100849.75;;;25.14;100.00
8627;BME280;4351;51.422;6.794;2022-08-18T18:40:25;100843.59;;;24.89;100.00
8627;BME280;4351;51.422;6.794;2022-08-18T18:42:54;100835.88;;;24.84;100.00
8627;BME280;4351;51.422;6.794;2022-08-18T18:45:26;100830.44;;;24.76;100.00
8627;BME280;4351;51.422;6.794;2022-08-18T18:48:03;100840.16;;;24.87;100.00
8627;BME280;4351;51.422;6.794;2022-08-18T18:50:39;100844.44;;;24.89;100.00
8627;BME280;4351;51.422;6.794;2022-08-18T18:53:29;100841.81;;;24.73;100.00
8627;BME280;4351;51.422;6.794;2022-08-18T18:56:06;100842.56;;;24.66;100.00
8627;BME280;4351;51.422;6.794;2022-08-18T18:58:46;100850.91;;;24.58;100.00
8627;BME280;4351;51.422;6.794;2022-08-18T19:01:31;100854.72;;;24.57;100.00
8627;BME280;4351;51.422;6.794;2022-08-18T19:04:13;100854.75;;;24.49;100.00
8627;BME280;4351;51.422;6.794;2022-08-18T19:06:50;100857.22;;;24.43;100.00
8627;BME280;4351;51.422;6.794;2022-08-18T19:09:25;100859.66;;;24.38;100.00
8627;BME280;4351;51.422;6.794;2022-08-18T19:12:04;100857.84;;;24.22;100.00
8627;BME280;4351;51.422;6.794;2022-08-18T19:14:38;100859.84;;;24.37;100.00
8627;BME280;4351;51.422;6.794;2022-08-18T19:17:21;100858.00;;;24.20;100.00
8627;BME280;4351;51.422;6.794;2022-08-18T19:19:53;100860.59;;;24.22;100.00
8627;BME280;4351;51.422;6.794;2022-08-18T19:22:39;100854.75;;;24.17;100.00
8627;BME280;4351;51.422;6.794;2022-08-18T19:25:14;100861.19;;;24.09;100.00
8627;BME280;4351;51.422;6.794;2022-08-18T19:27:46;100860.28;;;24.17;100.00
8627;BME280;4351;51.422;6.794;2022-08-18T19:30:17;100879.09;;;24.05;100.00
8627;BME280;4351;51.422;6.794;2022-08-18T19:32:50;100870.38;;;24.33;100.00
8627;BME280;4351;51.422;6.794;2022-08-18T19:35:23;100868.72;;;24.15;100.00
8627;BME280;4351;51.422;6.794;2022-08-18T19:38:12;100873.44;;;24.06;100.00
8627;BME280;4351;51.422;6.794;2022-08-18T19:40:50;100874.34;;;23.90;100.00
8627;BME280;4351;51.422;6.794;2022-08-18T19:43:23;100874.72;;;23.79;100.00
8627;BME280;4351;51.422;6.794;2022-08-18T19:46:01;100870.31;;;23.69;100.00
8627;BME280;4351;51.422;6.794;2022-08-18T19:48:39;100872.25;;;23.60;100.00
8627;BME280;4351;51.422;6.794;2022-08-18T19:51:16;100868.81;;;23.58;100.00
8627;BME280;4351;51.422;6.794;2022-08-18T19:53:57;100870.34;;;23.44;100.00
8627;BME280;4351;51.422;6.794;2022-08-18T19:56:57;100874.81;;;23.37;100.00
8627;BME280;4351;51.422;6.794;2022-08-18T19:59:47;100876.06;;;23.26;100.00
8627;BME280;4351;51.422;6.794;2022-08-18T20:02:28;100868.88;;;23.16;100.00
8627;BME280;4351;51.422;6.794;2022-08-18T20:05:13;100869.72;;;23.08;100.00
8627;BME280;4351;51.422;6.794;2022-08-18T20:08:05;100874.72;;;23.05;100.00
8627;BME280;4351;51.422;6.794;2022-08-18T20:10:45;100868.34;;;22.96;100.00
8627;BME280;4351;51.422;6.794;2022-08-18T20:13:27;100876.44;;;22.89;100.00
8627;BME280;4351;51.422;6.794;2022-08-18T20:16:14;100880.38;;;22.78;100.00
8627;BME280;4351;51.422;6.794;2022-08-18T20:19:02;100878.16;;;22.73;100.00
8627;BME280;4351;51.422;6.794;2022-08-18T20:22:00;100887.22;;;22.66;100.00
8627;BME280;4351;51.422;6.794;2022-08-18T20:24:37;100885.16;;;22.59;100.00
8627;BME280;4351;51.422;6.794;2022-08-18T20:27:27;100881.88;;;22.56;100.00
8627;BME280;4351;51.422;6.794;2022-08-18T20:33:17;100884.78;;;22.46;100.00
8627;BME280;4351;51.422;6.794;2022-08-18T20:35:51;100888.34;;;22.38;100.00
8627;BME280;4351;51.422;6.794;2022-08-18T20:38:30;100886.66;;;22.28;100.00
8627;BME280;4351;51.422;6.794;2022-08-18T20:47:26;100906.34;;;22.15;100.00
8627;BME280;4351;51.422;6.794;2022-08-18T20:50:22;100909.75;;;22.09;100.00
8627;BME280;4351;51.422;6.794;2022-08-18T20:53:04;100904.91;;;22.03;100.00
8627;BME280;4351;51.422;6.794;2022-08-18T20:55:43;100910.06;;;21.98;100.00
8627;BME280;4351;51.422;6.794;2022-08-18T20:58:22;100907.31;;;21.98;100.00
8627;BME280;4351;51.422;6.794;2022-08-18T21:00:54;100918.41;;;21.88;100.00
8627;BME280;4351;51.422;6.794;2022-08-18T21:03:33;100925.81;;;21.87;100.00
8627;BME280;4351;51.422;6.794;2022-08-18T21:06:07;100919.91;;;21.82;100.00
8627;BME280;4351;51.422;6.794;2022-08-18T21:08:38;100924.53;;;21.81;100.00
8627;BME280;4351;51.422;6.794;2022-08-18T21:11:19;100927.75;;;21.77;100.00
8627;BME280;4351;51.422;6.794;2022-08-18T21:13:58;100934.75;;;21.71;100.00
8627;BME280;4351;51.422;6.794;2022-08-18T21:16:34;100940.03;;;21.64;100.00
8627;BME280;4351;51.422;6.794;2022-08-18T21:19:07;100940.03;;;21.64;100.00
8627;BME280;4351;51.422;6.794;2022-08-18T21:21:46;100948.94;;;21.58;100.00
8627;BME280;4351;51.422;6.794;2022-08-18T21:24:21;100950.97;;;21.56;100.00
8627;BME280;4351;51.422;6.794;2022-08-18T21:26:55;100950.56;;;21.51;100.00
8627;BME280;4351;51.422;6.794;2022-08-18T21:29:24;100944.56;;;21.47;100.00
8627;BME280;4351;51.422;6.794;2022-08-18T21:32:17;100949.72;;;21.50;100.00
8627;BME280;4351;51.422;6.794;2022-08-18T21:34:46;100947.38;;;21.37;100.00